Time;durP1;ratioP1;P1;durP2;ratioP2;P2;SDS_P1;SDS_P2;PMS_P1;PMS_P2;Temp;Humidity;BMP_temperature;BMP_pressure;BME280_temperature;BME280_humidity;BME280_pressure;Samples;Min_cycle;Max_cycle;Signal;HPM_P1;HPM_P2
2023/12/09 00:00:42;;;;;;;;;;;;;;;15.71;42.77;100916.41;4965888;28;1148;-46
2023/12/09 00:03:08;;;;;;;;;;;;;;;18.09;39.55;101038.97;4969778;28;2473;-46
2023/12/09 00:05:34;;;;;;;;;;;;;;;16.72;42.14;101050.38;4959413;28;1080;-43
2023/12/09 00:07:59;;;;;;;;;;;;;;;18.55;38.93;101061.31;4964681;28;1083;-50
2023/12/09 00:10:25;;;;;;;;;;;;;;;15.70;44.16;101057.94;4977903;28;1072;-47
2023/12/09 00:12:50;;;;;;;;;;;;;;;17.29;41.93;101059.81;4946072;28;1025;-49
2023/12/09 00:15:16;;;;;;;;;;;;;;;18.66;38.56;101056.97;4964476;28;1133;-44
2023/12/09 00:17:42;;;;;;;;;;;;;;;16.99;41.91;101059.19;4971438;28;1910;-49
2023/12/09 00:20:08;;;;;;;;;;;;;;;16.61;42.95;101063.53;4971707;28;1073;-47
2023/12/09 00:22:33;;;;;;;;;;;;;;;17.19;41.39;101063.13;4965674;28;1168;-46
2023/12/09 00:24:59;;;;;;;;;;;;;;;16.43;42.90;101066.50;4977888;28;1064;-45
2023/12/09 00:27:25;;;;;;;;;;;;;;;18.55;39.01;101071.13;4969627;28;1524;-45
2023/12/09 00:29:50;;;;;;;;;;;;;;;16.97;41.57;101051.31;4958578;28;1049;-48
2023/12/09 00:32:16;;;;;;;;;;;;;;;17.35;41.56;101060.22;4958634;28;2373;-48
2023/12/09 00:34:42;;;;;;;;;;;;;;;17.93;39.85;101056.13;4971740;28;1203;-47
2023/12/09 00:37:07;;;;;;;;;;;;;;;16.72;42.40;101049.50;4971962;28;1915;-46
2023/12/09 00:39:33;;;;;;;;;;;;;;;17.70;40.72;101055.97;4962191;28;1132;-48
2023/12/09 00:41:59;;;;;;;;;;;;;;;16.99;41.58;101051.22;4958649;28;1009;-44
2023/12/09 00:44:24;;;;;;;;;;;;;;;18.71;38.52;101052.13;4958341;28;1147;-47
2023/12/09 00:46:50;;;;;;;;;;;;;;;16.44;42.67;101051.38;4970607;28;1163;-47
2023/12/09 00:49:16;;;;;;;;;;;;;;;17.04;42.36;101049.09;4970786;28;1029;-48
2023/12/09 00:51:42;;;;;;;;;;;;;;;18.91;38.24;101050.59;4968461;28;1147;-44
2023/12/09 00:54:07;;;;;;;;;;;;;;;15.38;45.29;101037.84;4958019;28;1061;-47
2023/12/09 00:56:33;;;;;;;;;;;;;;;17.69;40.83;101046.31;4963767;28;1914;-49
2023/12/09 00:58:58;;;;;;;;;;;;;;;18.58;38.53;101052.25;4977621;28;1013;-45
2023/12/09 01:01:24;;;;;;;;;;;;;;;17.18;41.47;101049.94;4964060;28;1255;-43
2023/12/09 01:03:50;;;;;;;;;;;;;;;17.12;41.97;101044.09;4965893;28;2548;-45
2023/12/09 01:06:16;;;;;;;;;;;;;;;17.27;41.09;101043.97;4964272;28;1033;-48
2023/12/09 01:08:42;;;;;;;;;;;;;;;17.80;40.64;101048.16;4977273;28;1044;-46
2023/12/09 01:11:07;;;;;;;;;;;;;;;18.89;37.65;101041.00;4976726;28;1029;-44
2023/12/09 01:13:33;;;;;;;;;;;;;;;15.45;46.22;101041.78;4964906;28;1188;-47
2023/12/09 01:15:58;;;;;;;;;;;;;;;18.46;39.23;101041.56;4973381;28;1988;-45
2023/12/09 01:18:24;;;;;;;;;;;;;;;16.89;41.43;101046.53;4964234;28;1204;-49
2023/12/09 01:20:50;;;;;;;;;;;;;;;16.79;42.97;101036.66;4977130;28;1009;-47
2023/12/09 01:23:15;;;;;;;;;;;;;;;18.87;38.31;101041.13;4977275;28;1021;-48
2023/12/09 01:25:41;;;;;;;;;;;;;;;17.25;41.30;101048.53;4957651;28;1003;-49
2023/12/09 01:28:06;;;;;;;;;;;;;;;17.07;41.96;101046.19;4970004;28;1053;-48
2023/12/09 01:30:32;;;;;;;;;;;;;;;18.00;39.49;101048.50;4970693;28;1080;-46
2023/12/09 01:32:57;;;;;;;;;;;;;;;16.87;41.91;101051.09;4962690;28;2421;-48
2023/12/09 01:35:23;;;;;;;;;;;;;;;18.83;38.29;101050.34;4976679;28;1137;-47
2023/12/09 01:37:49;;;;;;;;;;;;;;;15.12;45.35;101045.59;4975472;28;1978;-46
2023/12/09 01:40:14;;;;;;;;;;;;;;;17.58;41.04;101052.38;4966081;28;1133;-45
2023/12/09 01:42:43;;;;;;;;;;;;;;;18.35;38.76;101049.53;4957478;28;1036;-48
2023/12/09 01:45:09;;;;;;;;;;;;;;;16.85;41.84;101042.38;4962622;28;1039;-47
2023/12/09 01:47:35;;;;;;;;;;;;;;;17.29;41.32;101042.06;4965307;28;1009;-48
2023/12/09 01:50:03;;;;;;;;;;;;;;;17.06;41.48;101044.50;4957276;28;1159;-47
2023/12/09 01:52:29;;;;;;;;;;;;;;;16.89;42.45;101045.69;4957861;28;1172;-46
2023/12/09 01:54:55;;;;;;;;;;;;;;;18.38;38.81;101038.63;4968843;28;1204;-47
2023/12/09 01:57:20;;;;;;;;;;;;;;;16.94;41.55;101042.69;4956840;28;1902;-44
2023/12/09 01:59:46;;;;;;;;;;;;;;;16.50;42.51;101043.84;4961468;28;1101;-46
2023/12/09 02:02:17;;;;;;;;;;;;;;;18.03;39.76;101034.13;4964522;28;2307;-48
2023/12/09 02:04:56;;;;;;;;;;;;;;;16.80;42.38;101033.06;4954072;28;943;-48
2023/12/09 02:07:24;;;;;;;;;;;;;;;18.80;37.81;101027.41;4969929;28;1041;-49
2023/12/09 02:09:49;;;;;;;;;;;;;;;15.63;44.13;101015.06;4965369;28;1041;-46
2023/12/09 02:12:18;;;;;;;;;;;;;;;17.25;41.76;101013.97;4964648;28;1098;-45
2023/12/09 02:14:44;;;;;;;;;;;;;;;18.62;38.17;101012.88;4972059;28;1013;-47
2023/12/09 02:17:15;;;;;;;;;;;;;;;17.03;41.36;101012.84;4975346;28;1910;-47
2023/12/09 02:19:40;;;;;;;;;;;;;;;16.43;42.21;101000.13;4960780;28;911;-48
2023/12/09 02:22:06;;;;;;;;;;;;;;;17.41;40.62;101010.22;4974842;28;1062;-46
2023/12/09 02:24:32;;;;;;;;;;;;;;;16.60;42.70;101017.53;4980354;28;1064;-48
2023/12/09 02:27:16;;;;;;;;;;;;;;;18.72;38.15;101008.50;4964221;28;1168;-50
2023/12/09 02:29:45;;;;;;;;;;;;;;;14.88;46.05;101014.41;4967438;28;887;-49
2023/12/09 02:32:10;;;;;;;;;;;;;;;17.79;40.42;101011.03;4973147;28;2245;-47
2023/12/09 02:34:36;;;;;;;;;;;;;;;17.77;39.68;101005.81;4972640;28;1168;-48
2023/12/09 02:37:02;;;;;;;;;;;;;;;16.71;42.09;101005.31;4961588;28;1907;-47
2023/12/09 02:39:28;;;;;;;;;;;;;;;17.71;40.44;101019.59;4970566;28;1117;-45
2023/12/09 02:41:53;;;;;;;;;;;;;;;17.01;41.29;101017.41;4970450;28;1014;-47
2023/12/09 02:44:19;;;;;;;;;;;;;;;17.68;40.57;101020.66;4959321;28;1094;-46
2023/12/09 02:46:45;;;;;;;;;;;;;;;18.25;38.42;101027.22;4971679;28;1181;-46
2023/12/09 02:49:10;;;;;;;;;;;;;;;15.50;45.80;101021.13;4971698;28;1112;-48
2023/12/09 02:51:36;;;;;;;;;;;;;;;18.33;39.01;101017.66;4974544;28;1053;-43
2023/12/09 02:54:02;;;;;;;;;;;;;;;17.34;40.75;101015.13;4979530;28;1107;-46
2023/12/09 02:56:27;;;;;;;;;;;;;;;16.59;42.35;101022.94;4966034;28;1902;-47
2023/12/09 02:58:53;;;;;;;;;;;;;;;17.78;39.89;101020.84;4967659;28;1104;-44
2023/12/09 03:01:18;;;;;;;;;;;;;;;16.67;42.04;101009.97;4973263;28;1193;-47
2023/12/09 03:03:44;;;;;;;;;;;;;;;18.18;39.61;101017.03;4969963;28;2860;-45
2023/12/09 03:06:09;;;;;;;;;;;;;;;17.59;39.99;101018.66;4972305;28;1116;-49
2023/12/09 03:08:35;;;;;;;;;;;;;;;16.68;41.85;101005.53;4959339;28;1053;-51
2023/12/09 03:11:00;;;;;;;;;;;;;;;18.20;39.05;101007.09;4958896;28;1110;-51
2023/12/09 03:13:26;;;;;;;;;;;;;;;16.84;41.31;101022.09;4959878;28;1337;-48
2023/12/09 03:15:52;;;;;;;;;;;;;;;18.40;38.93;101028.69;4959915;28;1260;-49
2023/12/09 03:18:17;;;;;;;;;;;;;;;16.30;42.48;101034.59;4959161;28;1986;-46
2023/12/09 03:20:43;;;;;;;;;;;;;;;16.96;42.13;101031.03;4959532;28;1169;-47
2023/12/09 03:23:08;;;;;;;;;;;;;;;18.84;37.94;101022.69;4959191;28;1185;-47
2023/12/09 03:25:34;;;;;;;;;;;;;;;17.27;40.77;101016.56;4959335;28;1003;-49
2023/12/09 03:28:00;;;;;;;;;;;;;;;16.51;42.30;101019.03;4960586;28;1296;-48
2023/12/09 03:30:25;;;;;;;;;;;;;;;17.84;39.81;101020.38;4960368;28;1204;-48
2023/12/09 03:32:51;;;;;;;;;;;;;;;16.57;41.95;101020.41;4958857;28;1813;-49
2023/12/09 03:35:16;;;;;;;;;;;;;;;18.40;39.00;101010.03;4958949;28;1288;-49
2023/12/09 03:37:42;;;;;;;;;;;;;;;17.85;39.63;101011.41;4959632;28;1956;-48
2023/12/09 03:40:10;;;;;;;;;;;;;;;16.88;41.56;101015.59;4960308;28;1303;-47
2023/12/09 03:42:35;;;;;;;;;;;;;;;18.03;39.68;101020.81;4957136;29;1225;-47
2023/12/09 03:45:01;;;;;;;;;;;;;;;16.84;41.70;101023.91;4958886;28;1295;-48
2023/12/09 03:47:26;;;;;;;;;;;;;;;17.11;41.46;101022.94;4958924;28;1185;-47
2023/12/09 03:49:52;;;;;;;;;;;;;;;17.68;39.94;101017.16;4971949;28;1144;-47
2023/12/09 03:52:17;;;;;;;;;;;;;;;16.77;41.74;101010.19;4961620;28;1030;-47
2023/12/09 03:54:43;;;;;;;;;;;;;;;18.70;38.13;101005.16;4977134;28;1057;-49
2023/12/09 03:57:10;;;;;;;;;;;;;;;17.32;40.47;101009.91;4966291;28;1918;-48
2023/12/09 03:59:38;;;;;;;;;;;;;;;16.64;41.75;101010.19;4977292;28;1053;-50
2023/12/09 04:02:04;;;;;;;;;;;;;;;17.97;39.46;101030.94;4965826;28;2314;-48
2023/12/09 04:04:29;;;;;;;;;;;;;;;16.72;41.78;101022.94;4958627;28;1315;-50
2023/12/09 04:06:55;;;;;;;;;;;;;;;17.68;40.46;101025.13;4958181;28;1237;-48
2023/12/09 04:09:22;;;;;;;;;;;;;;;17.59;40.03;101022.19;4958431;28;1295;-49
2023/12/09 04:11:48;;;;;;;;;;;;;;;16.66;41.96;101008.28;4958293;28;1336;-47
2023/12/09 04:14:13;;;;;;;;;;;;;;;18.19;39.30;101002.75;4958076;28;1233;-48
2023/12/09 04:16:42;;;;;;;;;;;;;;;16.92;41.31;100999.44;4957262;28;1914;-53
2023/12/09 04:19:07;;;;;;;;;;;;;;;18.64;38.16;101001.13;4958050;28;1213;-48
2023/12/09 04:21:33;;;;;;;;;;;;;;;16.13;42.81;101001.22;4958321;28;1233;-46
2023/12/09 04:23:59;;;;;;;;;;;;;;;17.21;41.60;101023.16;4958481;28;1248;-48
2023/12/09 04:26:25;;;;;;;;;;;;;;;18.94;37.67;101022.81;4958246;28;1272;-51
2023/12/09 04:28:50;;;;;;;;;;;;;;;14.99;45.31;101029.63;4955832;28;1285;-46
2023/12/09 04:31:16;;;;;;;;;;;;;;;17.85;40.24;101034.53;4954312;29;1451;-48
2023/12/09 04:33:44;;;;;;;;;;;;;;;18.21;38.83;101038.09;4958204;28;2721;-44
2023/12/09 04:36:10;;;;;;;;;;;;;;;16.84;41.52;101032.72;4971012;28;1915;-49
2023/12/09 04:38:35;;;;;;;;;;;;;;;17.84;40.09;101038.16;4975761;28;1239;-47
2023/12/09 04:41:01;;;;;;;;;;;;;;;17.29;40.69;101052.69;4965267;28;1200;-50
2023/12/09 04:43:27;;;;;;;;;;;;;;;16.88;42.06;101052.81;4958493;28;1308;-50
2023/12/09 04:45:52;;;;;;;;;;;;;;;18.41;38.44;101050.84;4958217;28;1442;-50
2023/12/09 04:48:18;;;;;;;;;;;;;;;17.05;41.30;101049.94;4960074;28;1064;-49
2023/12/09 04:50:44;;;;;;;;;;;;;;;17.57;40.46;101058.69;4958024;28;1247;-54
2023/12/09 04:53:10;;;;;;;;;;;;;;;17.42;39.88;101039.34;4959235;28;1555;-55
2023/12/09 04:55:35;;;;;;;;;;;;;;;16.92;41.47;101037.50;4953477;28;1334;-57
2023/12/09 04:58:01;;;;;;;;;;;;;;;18.80;37.49;101008.75;4961585;28;1978;-52
2023/12/09 05:00:26;;;;;;;;;;;;;;;17.39;39.78;101007.66;4971825;28;953;-54
2023/12/09 05:02:52;;;;;;;;;;;;;;;16.63;41.00;101011.16;4959469;28;1097;-50
2023/12/09 05:05:18;;;;;;;;;;;;;;;17.57;39.48;101015.25;4967831;28;1153;-50
2023/12/09 05:07:44;;;;;;;;;;;;;;;16.63;41.11;101027.09;4958601;28;1160;-46
2023/12/09 05:10:12;;;;;;;;;;;;;;;18.62;37.69;101042.19;4956115;28;2553;-46
2023/12/09 05:12:38;;;;;;;;;;;;;;;17.47;39.28;101033.69;4965011;28;1967;-41
2023/12/09 05:15:04;;;;;;;;;;;;;;;16.63;41.02;101029.75;4959799;28;1963;-43
2023/12/09 05:17:29;;;;;;;;;;;;;;;18.20;37.58;101039.03;4958583;28;1963;-41
2023/12/09 05:19:55;;;;;;;;;;;;;;;16.98;39.74;101038.88;4956704;28;2072;-46
2023/12/09 05:22:21;;;;;;;;;;;;;;;16.35;40.90;101047.56;4974133;28;2050;-40
2023/12/09 05:24:47;;;;;;;;;;;;;;;16.12;41.02;101042.84;4973798;28;2161;-41
2023/12/09 05:27:13;;;;;;;;;;;;;;;16.55;40.73;101043.53;4951675;28;967;-44
2023/12/09 05:29:39;;;;;;;;;;;;;;;17.47;38.59;101045.19;4963516;28;1307;-43
2023/12/09 05:32:05;;;;;;;;;;;;;;;17.07;39.51;101034.72;4965614;28;1385;-46
2023/12/09 05:34:31;;;;;;;;;;;;;;;16.74;40.21;101040.50;4956647;28;1224;-41
2023/12/09 05:36:56;;;;;;;;;;;;;;;16.54;40.38;101033.88;4959184;28;1981;-45
2023/12/09 05:39:22;;;;;;;;;;;;;;;16.35;40.81;101023.69;4962184;28;1713;-47
2023/12/09 05:41:48;;;;;;;;;;;;;;;16.16;41.48;101022.25;4970802;28;1122;-43
2023/12/09 05:44:13;;;;;;;;;;;;;;;16.01;41.69;101016.16;4953186;29;994;-45
2023/12/09 05:46:40;;;;;;;;;;;;;;;15.81;41.70;101009.47;4973783;28;1038;-42
2023/12/09 05:49:05;;;;;;;;;;;;;;;15.65;42.40;101002.53;4961138;28;1262;-46
2023/12/09 05:51:31;;;;;;;;;;;;;;;15.59;42.17;101002.94;4961086;28;1489;-44
2023/12/09 05:53:57;;;;;;;;;;;;;;;15.51;42.42;101004.28;4972606;28;1996;-43
2023/12/09 05:56:22;;;;;;;;;;;;;;;15.32;42.95;101001.94;4960936;28;1884;-43
2023/12/09 05:58:48;;;;;;;;;;;;;;;15.22;42.85;101009.63;4961092;28;1065;-44
2023/12/09 06:01:14;;;;;;;;;;;;;;;15.45;42.93;101009.13;4974086;28;1183;-43
2023/12/09 06:03:39;;;;;;;;;;;;;;;16.80;39.65;100996.69;4961761;28;1096;-44
2023/12/09 06:06:05;;;;;;;;;;;;;;;16.53;40.24;101005.63;4965341;28;938;-43
2023/12/09 06:08:31;;;;;;;;;;;;;;;15.87;41.22;101017.91;4960060;28;1524;-41
2023/12/09 06:10:57;;;;;;;;;;;;;;;15.63;42.19;100997.31;4967944;28;1114;-44
2023/12/09 06:13:23;;;;;;;;;;;;;;;15.37;42.63;100999.84;4973391;28;1040;-47
2023/12/09 06:15:48;;;;;;;;;;;;;;;16.26;40.74;100988.84;4960932;28;1045;-47
2023/12/09 06:18:14;;;;;;;;;;;;;;;16.71;39.52;100995.53;4977439;28;1918;-46
2023/12/09 06:20:39;;;;;;;;;;;;;;;15.99;40.87;100987.09;4979754;28;1140;-43
2023/12/09 06:23:05;;;;;;;;;;;;;;;16.28;40.68;100988.72;4960794;29;1866;-45
2023/12/09 06:25:31;;;;;;;;;;;;;;;17.33;38.47;100985.03;4960963;28;1006;-46
2023/12/09 06:27:56;;;;;;;;;;;;;;;16.77;39.22;101003.06;4980066;28;1065;-51
2023/12/09 06:30:22;;;;;;;;;;;;;;;16.10;40.80;100994.31;4975475;28;1243;-44
2023/12/09 06:32:47;;;;;;;;;;;;;;;15.85;41.28;101005.69;4967497;28;1029;-44
2023/12/09 06:35:13;;;;;;;;;;;;;;;15.55;41.64;100999.63;4966445;28;1069;-46
2023/12/09 06:37:38;;;;;;;;;;;;;;;17.07;38.87;101006.34;4970250;28;1985;-48
2023/12/09 06:40:04;;;;;;;;;;;;;;;18.09;36.83;101015.03;4976090;28;1069;-46
2023/12/09 06:42:30;;;;;;;;;;;;;;;17.40;37.84;101003.22;4970083;28;1103;-46
2023/12/09 06:44:56;;;;;;;;;;;;;;;17.17;38.15;100995.06;4960361;28;993;-46
2023/12/09 06:47:22;;;;;;;;;;;;;;;16.90;38.68;101002.19;4969712;28;1161;-44
2023/12/09 06:49:47;;;;;;;;;;;;;;;16.73;39.18;100998.91;4963644;28;1207;-50
2023/12/09 06:52:13;;;;;;;;;;;;;;;15.89;40.94;100988.59;4969976;28;1157;-45
2023/12/09 06:54:39;;;;;;;;;;;;;;;15.38;42.38;100987.47;4974583;28;2353;-42
2023/12/09 06:57:05;;;;;;;;;;;;;;;16.68;39.53;100989.59;4979454;28;1993;-45
2023/12/09 06:59:30;;;;;;;;;;;;;;;16.71;39.32;100992.03;4964522;28;1154;-46
2023/12/09 07:01:58;;;;;;;;;;;;;;;15.96;40.88;100997.88;4963075;28;1350;-45
2023/12/09 07:04:24;;;;;;;;;;;;;;;15.57;41.82;100995.06;4979154;28;1013;-46
2023/12/09 07:06:50;;;;;;;;;;;;;;;15.34;42.28;100996.53;4968225;28;1183;-45
2023/12/09 07:09:16;;;;;;;;;;;;;;;16.25;40.71;101008.34;4969073;28;1267;-46
2023/12/09 07:11:41;;;;;;;;;;;;;;;17.16;38.49;101007.53;4977059;28;1000;-46
2023/12/09 07:14:07;;;;;;;;;;;;;;;16.24;40.17;101005.81;4959763;28;1029;-45
2023/12/09 07:16:33;;;;;;;;;;;;;;;15.74;41.30;101012.53;4974222;28;1902;-43
2023/12/09 07:19:01;;;;;;;;;;;;;;;15.96;41.31;101011.13;4967775;28;858;-44
2023/12/09 07:21:29;;;;;;;;;;;;;;;17.18;38.71;100994.13;4959488;28;1128;-43
2023/12/09 07:23:55;;;;;;;;;;;;;;;16.45;39.84;101003.50;4950998;28;2345;-46
2023/12/09 07:26:21;;;;;;;;;;;;;;;15.86;41.13;100989.66;4969026;28;1177;-45
2023/12/09 07:28:46;;;;;;;;;;;;;;;15.62;41.82;101010.69;4968726;28;1037;-44
2023/12/09 07:31:12;;;;;;;;;;;;;;;15.38;42.38;100993.59;4974738;28;1160;-46
2023/12/09 07:33:38;;;;;;;;;;;;;;;16.69;39.75;100991.28;4969455;28;1131;-46
2023/12/09 07:36:04;;;;;;;;;;;;;;;16.45;39.88;100995.53;4961375;28;1033;-45
2023/12/09 07:38:29;;;;;;;;;;;;;;;15.82;41.45;100993.47;4962172;28;1996;-46
2023/12/09 07:40:55;;;;;;;;;;;;;;;15.51;42.10;100993.69;4969497;28;1128;-48
2023/12/09 07:43:20;;;;;;;;;;;;;;;15.27;42.49;100982.84;4974568;28;1136;-45
2023/12/09 07:45:46;;;;;;;;;;;;;;;16.52;39.99;100988.84;4974503;28;1129;-43
2023/12/09 07:48:12;;;;;;;;;;;;;;;16.73;39.52;100987.47;4975437;28;1054;-46
2023/12/09 07:50:37;;;;;;;;;;;;;;;15.89;41.22;100978.84;4968719;28;1097;-48
2023/12/09 07:53:04;;;;;;;;;;;;;;;15.52;41.91;100971.50;4961292;28;2403;-46
2023/12/09 07:55:29;;;;;;;;;;;;;;;15.35;42.27;100985.00;4953105;28;1029;-46
2023/12/09 07:57:56;;;;;;;;;;;;;;;16.63;39.80;100985.44;4953008;28;1910;-43
2023/12/09 08:00:21;;;;;;;;;;;;;;;16.85;39.14;100991.91;4977802;28;1106;-45
2023/12/09 08:02:47;;;;;;;;;;;;;;;16.06;40.91;100994.63;4964969;28;1140;-48
2023/12/09 08:05:12;;;;;;;;;;;;;;;15.68;41.91;100994.38;4970873;28;1120;-45
2023/12/09 08:07:38;;;;;;;;;;;;;;;15.40;42.31;100993.50;4970961;28;1054;-44
2023/12/09 08:10:04;;;;;;;;;;;;;;;15.37;42.70;100993.69;4953840;28;1145;-45
2023/12/09 08:12:31;;;;;;;;;;;;;;;16.69;39.87;100997.44;4964936;28;1280;-48
2023/12/09 08:14:56;;;;;;;;;;;;;;;16.55;39.81;100992.25;4978116;28;1018;-47
2023/12/09 08:17:22;;;;;;;;;;;;;;;15.83;41.40;100995.16;4952627;28;1918;-44
2023/12/09 08:19:48;;;;;;;;;;;;;;;16.64;39.93;100989.81;4977322;28;986;-44
2023/12/09 08:22:14;;;;;;;;;;;;;;;17.52;37.99;100989.00;4977767;28;1096;-44
2023/12/09 08:24:40;;;;;;;;;;;;;;;17.35;38.11;100984.94;4975793;28;2571;-44
2023/12/09 08:27:06;;;;;;;;;;;;;;;16.50;40.11;100988.09;4971535;28;1105;-43
2023/12/09 08:29:31;;;;;;;;;;;;;;;16.01;41.19;100982.53;4971317;28;1078;-46
2023/12/09 08:31:57;;;;;;;;;;;;;;;16.58;40.13;100989.38;4969221;28;1061;-45
2023/12/09 08:34:23;;;;;;;;;;;;;;;17.62;37.94;100999.81;4954650;28;1346;-44
2023/12/09 08:36:49;;;;;;;;;;;;;;;16.84;39.09;100994.66;4956410;28;1903;-43
2023/12/09 08:39:16;;;;;;;;;;;;;;;16.26;40.40;100999.47;4957957;28;1199;-43
2023/12/09 08:41:42;;;;;;;;;;;;;;;15.89;41.26;101000.06;4973826;28;1434;-47
2023/12/09 08:44:07;;;;;;;;;;;;;;;17.05;39.12;100983.50;4962397;28;879;-43
2023/12/09 08:46:33;;;;;;;;;;;;;;;17.40;38.10;100971.31;4973945;28;1045;-44
2023/12/09 08:48:59;;;;;;;;;;;;;;;16.53;39.82;100971.13;4977362;28;1091;-40
2023/12/09 08:51:24;;;;;;;;;;;;;;;16.93;39.37;100979.91;4977137;28;993;-40
2023/12/09 08:53:50;;;;;;;;;;;;;;;17.48;38.06;100967.09;4967855;28;2258;-40
2023/12/09 08:56:16;;;;;;;;;;;;;;;16.57;39.88;100961.09;4958111;28;1902;-41
2023/12/09 08:58:41;;;;;;;;;;;;;;;16.13;40.05;100972.03;4967075;28;1072;-42
2023/12/09 09:01:08;;;;;;;;;;;;;;;15.83;41.20;100965.97;4974400;28;1109;-45
2023/12/09 09:03:33;;;;;;;;;;;;;;;16.91;39.32;100965.84;4966894;28;1009;-44
2023/12/09 09:05:59;;;;;;;;;;;;;;;17.32;38.10;100966.53;4964300;28;1404;-45
2023/12/09 09:08:25;;;;;;;;;;;;;;;16.46;39.92;100975.13;4960711;28;867;-46
2023/12/09 09:10:50;;;;;;;;;;;;;;;15.96;40.82;100973.13;4970655;28;1029;-43
2023/12/09 09:13:16;;;;;;;;;;;;;;;17.07;39.20;100963.81;4966818;28;1005;-49
2023/12/09 09:15:42;;;;;;;;;;;;;;;17.14;38.60;100966.91;4963698;28;1156;-48
2023/12/09 09:18:07;;;;;;;;;;;;;;;16.43;40.12;100967.38;4977157;28;1906;-45
2023/12/09 09:20:33;;;;;;;;;;;;;;;16.02;40.92;100968.28;4962104;28;912;-46
2023/12/09 09:22:59;;;;;;;;;;;;;;;16.93;39.14;100977.22;4968364;28;2254;-45
2023/12/09 09:25:25;;;;;;;;;;;;;;;17.49;38.04;100973.28;4970478;28;1192;-46
2023/12/09 09:27:51;;;;;;;;;;;;;;;16.61;39.75;100965.25;4957541;28;1029;-45
2023/12/09 09:30:19;;;;;;;;;;;;;;;16.13;40.80;100975.53;4972913;28;1003;-45
2023/12/09 09:32:48;;;;;;;;;;;;;;;15.87;41.49;100972.78;4968126;28;1039;-48
2023/12/09 09:35:14;;;;;;;;;;;;;;;17.13;38.93;100994.47;4951483;28;1152;-45
2023/12/09 09:37:39;;;;;;;;;;;;;;;17.27;38.56;100984.66;4976573;28;1906;-44
2023/12/09 09:40:05;;;;;;;;;;;;;;;16.44;40.18;100985.88;4975833;28;1176;-43
2023/12/09 09:42:36;;;;;;;;;;;;;;;16.01;41.01;100997.59;4976414;28;1080;-49
2023/12/09 09:45:20;;;;;;;;;;;;;;;16.97;39.36;100984.88;4961300;28;930;-48
2023/12/09 09:47:49;;;;;;;;;;;;;;;17.11;38.75;100986.59;4976616;28;1139;-44
2023/12/09 09:50:21;;;;;;;;;;;;;;;16.37;40.25;100977.47;4952363;28;1086;-48
2023/12/09 09:52:47;;;;;;;;;;;;;;;16.00;41.09;100987.91;4960852;28;1272;-46
2023/12/09 09:55:12;;;;;;;;;;;;;;;16.32;40.64;100984.91;4962014;28;2724;-46
2023/12/09 09:57:38;;;;;;;;;;;;;;;17.54;38.32;100988.88;4957092;28;1984;-44
2023/12/09 10:00:13;;;;;;;;;;;;;;;16.72;39.74;100989.25;4967332;28;1249;-43
2023/12/09 10:02:46;;;;;;;;;;;;;;;16.14;41.01;100984.34;4957164;29;1074;-46
2023/12/09 10:05:12;;;;;;;;;;;;;;;16.06;41.25;100995.50;4953710;28;1335;-46
2023/12/09 10:07:39;;;;;;;;;;;;;;;17.36;38.51;100984.81;4954239;28;1085;-46
2023/12/09 10:10:05;;;;;;;;;;;;;;;16.91;39.00;101001.25;4964009;28;1149;-47
2023/12/09 10:12:31;;;;;;;;;;;;;;;16.28;40.37;100996.69;4956552;28;1188;-44
2023/12/09 10:14:57;;;;;;;;;;;;;;;15.96;41.24;100997.88;4955826;29;1315;-44
2023/12/09 10:17:22;;;;;;;;;;;;;;;17.14;38.91;101014.75;4953762;28;1976;-43
2023/12/09 10:19:48;;;;;;;;;;;;;;;17.08;38.83;101023.13;4955638;28;1002;-42
2023/12/09 10:22:14;;;;;;;;;;;;;;;16.36;40.48;101018.25;4972324;28;1097;-44
2023/12/09 10:24:39;;;;;;;;;;;;;;;15.96;41.33;101015.59;4960362;28;2564;-45
2023/12/09 10:27:05;;;;;;;;;;;;;;;16.32;40.93;101011.44;4957518;28;1457;-46
2023/12/09 10:29:30;;;;;;;;;;;;;;;17.49;38.29;101015.81;4952306;28;1492;-44
2023/12/09 10:31:56;;;;;;;;;;;;;;;16.65;39.84;101014.53;4958276;28;1105;-45
2023/12/09 10:34:22;;;;;;;;;;;;;;;16.13;40.86;101006.53;4979035;28;1025;-45
2023/12/09 10:36:48;;;;;;;;;;;;;;;15.94;41.54;101010.38;4975617;28;1906;-46
2023/12/09 10:39:13;;;;;;;;;;;;;;;17.31;38.88;101008.22;4969534;28;1163;-43
2023/12/09 10:41:39;;;;;;;;;;;;;;;16.77;39.73;101010.19;4974464;28;1109;-48
2023/12/09 10:44:04;;;;;;;;;;;;;;;16.18;40.97;101006.22;4960234;28;1200;-48
2023/12/09 10:46:30;;;;;;;;;;;;;;;15.87;41.72;101009.06;4960480;29;1252;-47
2023/12/09 10:48:56;;;;;;;;;;;;;;;16.44;40.76;101007.13;4959430;28;1292;-45
2023/12/09 10:51:23;;;;;;;;;;;;;;;17.30;38.63;101011.84;4971648;28;1101;-42
2023/12/09 10:53:48;;;;;;;;;;;;;;;16.43;40.51;101012.53;4963860;28;2434;-47
2023/12/09 10:56:14;;;;;;;;;;;;;;;16.00;41.42;101011.78;4969969;28;1910;-44
2023/12/09 10:58:39;;;;;;;;;;;;;;;16.90;39.81;100999.53;4971659;28;956;-48
2023/12/09 11:01:05;;;;;;;;;;;;;;;17.08;38.93;100980.59;4957444;28;1154;-46
2023/12/09 11:03:31;;;;;;;;;;;;;;;16.33;40.71;100993.72;4974967;28;1015;-48
2023/12/09 11:05:57;;;;;;;;;;;;;;;15.91;41.56;100984.06;4966229;28;1384;-45
2023/12/09 11:08:24;;;;;;;;;;;;;;;15.98;41.40;100981.84;4962357;28;1295;-45
2023/12/09 11:10:50;;;;;;;;;;;;;;;17.34;38.66;100969.91;4969253;28;1061;-47
2023/12/09 11:13:17;;;;;;;;;;;;;;;16.87;39.44;100971.41;4979064;28;1120;-45
2023/12/09 11:15:43;;;;;;;;;;;;;;;16.20;41.06;100967.16;4978778;28;1439;-44
2023/12/09 11:18:09;;;;;;;;;;;;;;;16.92;39.64;100971.06;4972392;28;1973;-46
2023/12/09 11:20:39;;;;;;;;;;;;;;;17.06;39.10;100963.91;4959383;28;1022;-44
2023/12/09 11:23:07;;;;;;;;;;;;;;;16.33;40.82;100952.06;4956142;28;2256;-46
2023/12/09 11:25:32;;;;;;;;;;;;;;;15.92;41.35;100956.56;4954501;28;1097;-47
2023/12/09 11:27:58;;;;;;;;;;;;;;;16.14;41.44;100965.75;4969619;28;951;-47
2023/12/09 11:30:30;;;;;;;;;;;;;;;17.40;38.59;100950.03;4961187;28;1153;-47
2023/12/09 11:32:56;;;;;;;;;;;;;;;16.74;39.80;100952.81;4960120;28;1204;-47
2023/12/09 11:35:22;;;;;;;;;;;;;;;16.23;40.75;100943.06;4976509;28;1068;-45
2023/12/09 11:37:48;;;;;;;;;;;;;;;15.87;41.51;100938.31;4978067;28;1965;-43
2023/12/09 11:40:14;;;;;;;;;;;;;;;16.00;41.39;100933.03;4978373;28;1152;-46
2023/12/09 11:42:39;;;;;;;;;;;;;;;17.29;38.77;100943.69;4967858;28;1100;-46
2023/12/09 11:45:05;;;;;;;;;;;;;;;17.23;38.51;100944.13;4964455;28;1152;-49
2023/12/09 11:47:30;;;;;;;;;;;;;;;16.44;40.30;100932.75;4953499;29;1157;-44
2023/12/09 11:49:56;;;;;;;;;;;;;;;16.03;41.48;100958.53;4960466;28;1023;-46
2023/12/09 11:52:22;;;;;;;;;;;;;;;17.22;39.16;100953.03;4977143;28;1045;-44
2023/12/09 11:54:58;;;;;;;;;;;;;;;17.25;38.77;100963.47;4955110;28;2485;-46
2023/12/09 11:57:23;;;;;;;;;;;;;;;16.43;40.12;100956.78;4958121;28;1899;-46
2023/12/09 11:59:49;;;;;;;;;;;;;;;16.88;39.72;100945.69;4957897;28;1185;-42
2023/12/09 12:02:14;;;;;;;;;;;;;;;17.25;38.78;100951.03;4958922;28;1436;-45
2023/12/09 12:04:40;;;;;;;;;;;;;;;16.50;40.45;100948.25;4969472;28;1363;-44
2023/12/09 12:07:05;;;;;;;;;;;;;;;16.03;41.22;100947.94;4959063;28;1120;-45
2023/12/09 12:09:31;;;;;;;;;;;;;;;15.77;41.90;100955.78;4968079;28;863;-48
2023/12/09 12:11:56;;;;;;;;;;;;;;;16.97;39.43;100953.00;4965356;28;1022;-47
2023/12/09 12:14:22;;;;;;;;;;;;;;;17.19;38.97;100954.13;4978184;28;1071;-46
2023/12/09 12:16:48;;;;;;;;;;;;;;;16.42;40.60;100942.63;4964181;28;1902;-51
2023/12/09 12:19:13;;;;;;;;;;;;;;;15.99;41.41;100944.63;4977591;28;1016;-47
2023/12/09 12:21:39;;;;;;;;;;;;;;;16.65;40.25;100954.31;4977202;28;1112;-46
2023/12/09 12:24:05;;;;;;;;;;;;;;;17.60;38.22;100943.25;4976208;28;2514;-47
2023/12/09 12:26:31;;;;;;;;;;;;;;;16.63;39.73;100942.09;4974749;28;1103;-44
2023/12/09 12:28:57;;;;;;;;;;;;;;;16.14;40.81;100933.91;4967781;28;1117;-48
2023/12/09 12:31:23;;;;;;;;;;;;;;;15.83;41.48;100944.75;4967007;28;1215;-51
2023/12/09 12:33:49;;;;;;;;;;;;;;;16.88;39.52;100941.19;4961920;28;1129;-46
2023/12/09 12:36:14;;;;;;;;;;;;;;;17.19;38.68;100947.97;4968731;28;1160;-49
2023/12/09 12:38:40;;;;;;;;;;;;;;;16.37;40.39;100952.72;4975951;28;1914;-45
2023/12/09 12:41:06;;;;;;;;;;;;;;;15.98;41.00;100932.28;4964843;28;1058;-45